Time;durP1;ratioP1;P1;durP2;ratioP2;P2;SDS_P1;SDS_P2;PMS_P1;PMS_P2;Temp;Humidity;BMP_temperature;BMP_pressure;BME280_temperature;BME280_humidity;BME280_pressure;Samples;Min_cycle;Max_cycle;Signal;HPM_P1;HPM_P2
2021/06/16 00:02:21;;;;;;;6.50;5.88;;;19.40;99.90;;;;;;5024981;28;20191;-67
2021/06/16 00:04:47;;;;;;;6.63;6.03;;;19.40;99.90;;;;;;5013670;28;20604;-67
2021/06/16 00:07:13;;;;;;;5.43;5.13;;;19.40;99.90;;;;;;5020183;28;20203;-67
2021/06/16 00:09:39;;;;;;;7.15;6.50;;;19.50;99.90;;;;;;5033437;28;20659;-66
2021/06/16 00:12:05;;;;;;;6.43;6.00;;;19.50;99.90;;;;;;5027829;28;20188;-67
2021/06/16 00:14:31;;;;;;;7.00;6.40;;;19.50;99.90;;;;;;5013655;28;20653;-67
2021/06/16 00:16:57;;;;;;;7.00;6.60;;;19.50;99.90;;;;;;5016768;28;20199;-66
2021/06/16 00:19:22;;;;;;;7.37;6.77;;;19.50;99.90;;;;;;5032214;28;20183;-67
2021/06/16 00:21:48;;;;;;;5.60;5.30;;;19.50;99.90;;;;;;5030915;28;20244;-67
2021/06/16 00:24:14;;;;;;;6.10;5.80;;;19.50;99.90;;;;;;5013525;28;20243;-67
2021/06/16 00:26:42;;;;;;;6.40;5.97;;;19.40;99.90;;;;;;5013239;28;20195;-68
2021/06/16 00:29:08;;;;;;;6.90;6.30;;;19.50;99.90;;;;;;5013277;28;20210;-66
2021/06/16 00:31:33;;;;;;;7.57;5.55;;;19.50;99.90;;;;;;5012983;28;20539;-67
2021/06/16 00:33:59;;;;;;;6.80;6.20;;;19.50;99.90;;;;;;5013709;28;20180;-68
2021/06/16 00:36:25;;;;;;;5.90;5.50;;;19.40;99.90;;;;;;5013241;28;20224;-68
2021/06/16 00:38:51;;;;;;;7.27;6.77;;;19.40;99.90;;;;;;5029866;28;20203;-67
2021/06/16 00:41:16;;;;;;;6.60;5.97;;;19.30;99.90;;;;;;5032587;28;20598;-67
2021/06/16 00:43:42;;;;;;;6.20;5.70;;;19.30;99.90;;;;;;5017483;28;20254;-68
2021/06/16 00:46:08;;;;;;;7.00;6.63;;;19.30;99.90;;;;;;5012807;28;20335;-66
2021/06/16 00:48:33;;;;;;;6.67;6.27;;;19.20;99.90;;;;;;5026223;28;20187;-67
2021/06/16 00:50:59;;;;;;;5.80;5.47;;;19.20;99.90;;;;;;5032538;28;20246;-67
2021/06/16 00:53:24;;;;;;;8.07;7.47;;;19.10;99.90;;;;;;5020786;28;20179;-68
2021/06/16 00:55:50;;;;;;;7.22;6.15;;;19.10;99.90;;;;;;5012775;28;20270;-67
2021/06/16 00:58:16;;;;;;;7.30;6.70;;;19.10;99.90;;;;;;5022682;28;20179;-68
2021/06/16 01:01:03;;;;;;;6.22;5.72;;;19.00;99.90;;;;;;5032190;28;20247;-67
2021/06/16 01:03:47;;;;;;;5.50;5.10;;;18.90;99.90;;;;;;5021230;28;20194;-66
2021/06/16 01:06:20;;;;;;;5.73;5.30;;;18.80;99.90;;;;;;5019750;28;20219;-66
2021/06/16 01:09:19;;;;;;;6.20;5.60;;;18.80;99.90;;;;;;5032448;28;20577;-67
2021/06/16 01:11:50;;;;;;;5.43;5.10;;;18.70;99.90;;;;;;5020731;28;20218;-66
2021/06/16 01:14:21;;;;;;;5.73;5.23;;;18.60;99.90;;;;;;5030585;28;20524;-67
2021/06/16 01:16:55;;;;;;;6.80;5.67;;;18.70;99.90;;;;;;5032182;28;20561;-67
2021/06/16 01:20:00;;;;;;;5.68;5.28;;;18.60;99.90;;;;;;5021439;28;20176;-67
2021/06/16 01:22:42;;;;;;;7.30;6.23;;;18.60;99.90;;;;;;5012771;28;20665;-67
2021/06/16 01:25:17;;;;;;;5.70;5.20;;;18.60;99.90;;;;;;5028383;28;20203;-67
2021/06/16 01:27:44;;;;;;;5.87;5.23;;;18.70;99.90;;;;;;5032010;28;20190;-67
2021/06/16 01:30:10;;;;;;;5.87;5.37;;;18.70;99.90;;;;;;5015396;28;20187;-66
2021/06/16 01:32:37;;;;;;;5.40;5.10;;;18.80;99.90;;;;;;5012156;28;20168;-67
2021/06/16 01:35:03;;;;;;;6.30;5.80;;;18.90;99.90;;;;;;5026651;28;20539;-67
2021/06/16 01:37:29;;;;;;;7.30;6.43;;;19.00;99.90;;;;;;5031726;28;20191;-67
2021/06/16 01:39:57;;;;;;;6.70;6.30;;;19.10;99.90;;;;;;5018379;28;20180;-67
2021/06/16 01:42:24;;;;;;;7.70;7.20;;;19.20;99.90;;;;;;5017227;28;20190;-67
2021/06/16 01:44:53;;;;;;;7.78;7.25;;;19.20;99.90;;;;;;5031805;28;20199;-66
2021/06/16 01:47:23;;;;;;;7.30;6.85;;;19.20;99.90;;;;;;5026954;28;20270;-67
2021/06/16 01:49:53;;;;;;;7.67;7.27;;;19.10;99.90;;;;;;5011772;28;20211;-67
2021/06/16 01:52:21;;;;;;;6.80;6.30;;;19.20;99.90;;;;;;5015678;28;20179;-67
2021/06/16 01:54:47;;;;;;;6.03;5.73;;;19.20;99.90;;;;;;5031757;28;20171;-67
2021/06/16 01:57:13;;;;;;;6.27;5.87;;;19.10;99.90;;;;;;5028908;28;20199;-67
2021/06/16 01:59:43;;;;;;;6.40;6.00;;;19.00;99.90;;;;;;5011888;28;20641;-66
2021/06/16 02:02:09;;;;;;;7.20;6.77;;;18.90;99.90;;;;;;5013091;28;20176;-67
2021/06/16 02:04:36;;;;;;;7.13;6.43;;;18.90;99.90;;;;;;5031647;28;20176;-67
2021/06/16 02:07:07;;;;;;;6.43;6.03;;;18.90;99.90;;;;;;5031340;28;20559;-66
2021/06/16 02:09:34;;;;;;;6.70;6.20;;;18.80;99.90;;;;;;5031448;28;20179;-66
2021/06/16 02:12:01;;;;;;;6.73;6.13;;;18.80;99.90;;;;;;5031295;28;20293;-66
2021/06/16 02:14:28;;;;;;;6.37;5.93;;;18.90;99.90;;;;;;5012349;28;20176;-66
2021/06/16 02:17:00;;;;;;;6.17;5.70;;;18.80;99.90;;;;;;5011597;28;20214;-66
2021/06/16 02:19:28;;;;;;;8.83;6.67;;;18.80;99.90;;;;;;5029722;28;20171;-67
2021/06/16 02:21:55;;;;;;;6.90;6.30;;;18.80;99.90;;;;;;5031056;28;20172;-67
2021/06/16 02:24:21;;;;;;;6.87;6.37;;;18.80;99.90;;;;;;5014094;28;20173;-67
2021/06/16 02:26:48;;;;;;;6.70;6.03;;;18.80;99.90;;;;;;5011595;28;20254;-67
2021/06/16 02:29:13;;;;;;;6.00;5.50;;;18.70;99.90;;;;;;5026867;28;20199;-65
2021/06/16 02:31:40;;;;;;;6.43;6.03;;;18.70;99.90;;;;;;5030994;28;20191;-66
2021/06/16 02:34:07;;;;;;;6.30;5.80;;;18.60;99.90;;;;;;5017113;28;20195;-68
2021/06/16 02:36:44;;;;;;;6.20;5.70;;;18.60;99.90;;;;;;5011510;28;20188;-66
2021/06/16 02:39:24;;;;;;;6.20;5.80;;;18.60;99.90;;;;;;5025303;28;20219;-65
2021/06/16 02:41:51;;;;;;;6.10;5.70;;;18.60;99.90;;;;;;5032481;28;20250;-66
2021/06/16 02:44:17;;;;;;;5.87;5.37;;;18.60;99.90;;;;;;5020493;28;20172;-65
2021/06/16 02:46:48;;;;;;;6.47;5.97;;;18.40;99.90;;;;;;5015050;28;20208;-67
2021/06/16 02:49:14;;;;;;;7.07;6.57;;;18.30;99.90;;;;;;5028390;28;20661;-65
2021/06/16 02:51:41;;;;;;;6.27;5.77;;;18.30;99.90;;;;;;5034560;28;20643;-66
2021/06/16 02:54:16;;;;;;;6.13;5.70;;;18.20;99.90;;;;;;5022739;28;20184;-65
2021/06/16 02:56:44;;;;;;;5.63;5.23;;;18.30;99.90;;;;;;5015061;28;20555;-65
2021/06/16 02:59:12;;;;;;;7.10;6.60;;;18.20;99.90;;;;;;5026779;28;20191;-66
2021/06/16 03:01:38;;;;;;;7.00;6.47;;;18.10;99.90;;;;;;5034422;28;20665;-66
2021/06/16 03:04:06;;;;;;;6.77;6.27;;;18.00;99.90;;;;;;5023940;28;20210;-65
2021/06/16 03:06:32;;;;;;;6.67;6.13;;;17.90;99.90;;;;;;5023168;28;20242;-66
2021/06/16 03:09:00;;;;;;;6.63;5.70;;;17.80;99.90;;;;;;5034633;28;20172;-67
2021/06/16 03:11:28;;;;;;;6.77;6.27;;;17.80;99.90;;;;;;5027022;28;20820;-67
2021/06/16 03:13:54;;;;;;;6.67;6.27;;;17.70;99.90;;;;;;5014776;28;20180;-66
2021/06/16 03:16:20;;;;;;;7.57;6.97;;;17.70;99.90;;;;;;5020469;28;20212;-65
2021/06/16 03:18:47;;;;;;;6.53;6.03;;;17.80;99.90;;;;;;5034391;28;20179;-66
2021/06/16 03:21:15;;;;;;;6.37;5.80;;;17.90;99.90;;;;;;5029378;28;20176;-65
2021/06/16 03:23:42;;;;;;;6.30;5.90;;;17.90;99.90;;;;;;5014589;28;20184;-65
2021/06/16 03:26:09;;;;;;;6.30;5.80;;;17.90;99.90;;;;;;5017631;28;20222;-65
2021/06/16 03:28:36;;;;;;;6.30;5.90;;;17.90;99.90;;;;;;5034333;28;20642;-65
2021/06/16 03:31:02;;;;;;;7.30;6.80;;;18.00;99.90;;;;;;5031175;28;20168;-65
2021/06/16 03:33:28;;;;;;;7.40;6.70;;;17.90;99.90;;;;;;5012782;28;20435;-65
2021/06/16 03:35:55;;;;;;;7.07;6.57;;;18.00;99.90;;;;;;5011989;28;20199;-67
2021/06/16 03:38:22;;;;;;;7.33;6.83;;;17.90;99.90;;;;;;5033397;28;20223;-65
2021/06/16 03:40:50;;;;;;;7.40;6.97;;;17.90;99.90;;;;;;5033503;28;20172;-65
2021/06/16 03:43:18;;;;;;;6.17;5.67;;;17.90;99.90;;;;;;5014713;28;20176;-66
2021/06/16 03:45:44;;;;;;;6.70;6.20;;;17.90;99.90;;;;;;5013241;28;20207;-66
2021/06/16 03:48:12;;;;;;;6.80;6.23;;;17.80;99.90;;;;;;5031157;28;20176;-66
2021/06/16 03:50:39;;;;;;;6.40;6.00;;;17.80;99.90;;;;;;5033410;28;20178;-65
2021/06/16 03:53:09;;;;;;;6.90;6.40;;;17.80;99.90;;;;;;5017532;28;20708;-65
2021/06/16 03:55:35;;;;;;;6.30;5.90;;;17.80;99.90;;;;;;5013421;28;20200;-66
2021/06/16 03:58:02;;;;;;;6.50;6.00;;;17.80;99.90;;;;;;5028315;28;20191;-66
2021/06/16 04:00:28;;;;;;;6.10;5.60;;;17.80;99.90;;;;;;5033536;28;20195;-65
2021/06/16 04:02:53;;;;;;;7.27;6.40;;;17.90;99.90;;;;;;5020437;28;20180;-66
2021/06/16 04:05:19;;;;;;;6.50;5.87;;;17.90;99.90;;;;;;5013612;28;20206;-66
2021/06/16 04:07:50;;;;;;;7.53;6.40;;;18.00;99.90;;;;;;5024406;28;20215;-65
2021/06/16 04:10:18;;;;;;;7.30;6.77;;;18.10;99.90;;;;;;5033229;28;20172;-66
2021/06/16 04:12:48;;;;;;;8.37;6.10;;;18.20;99.90;;;;;;5022841;28;20203;-66
2021/06/16 04:15:15;;;;;;;6.53;5.93;;;18.20;99.90;;;;;;5013583;28;20265;-68
2021/06/16 04:17:41;;;;;;;6.73;6.23;;;18.30;99.90;;;;;;5022539;28;20229;-65
2021/06/16 04:20:08;;;;;;;7.57;6.83;;;18.60;99.90;;;;;;5033077;28;20645;-65
2021/06/16 04:22:34;;;;;;;7.10;6.70;;;18.60;99.90;;;;;;5025379;28;20176;-66
2021/06/16 04:25:00;;;;;;;8.60;8.00;;;18.80;99.90;;;;;;5013368;28;20254;-66
2021/06/16 04:27:25;;;;;;;7.23;6.50;;;18.90;99.90;;;;;;5018836;28;20278;-66
2021/06/16 04:29:51;;;;;;;7.27;6.67;;;19.10;99.90;;;;;;5033043;28;20195;-67
2021/06/16 04:32:17;;;;;;;8.70;8.10;;;19.20;99.90;;;;;;5028993;28;20180;-66
2021/06/16 04:34:43;;;;;;;6.90;6.07;;;19.40;99.90;;;;;;5013206;28;20709;-65
2021/06/16 04:37:09;;;;;;;11.20;10.33;;;19.70;99.90;;;;;;5015238;28;20276;-65
2021/06/16 04:39:35;;;;;;;8.85;8.15;;;20.10;99.90;;;;;;5032786;28;20171;-66
2021/06/16 04:42:02;;;;;;;7.18;6.68;;;20.20;99.90;;;;;;5031923;28;20171;-66
2021/06/16 04:44:27;;;;;;;7.60;7.00;;;20.50;99.90;;;;;;5013141;28;20192;-66
2021/06/16 04:46:53;;;;;;;6.38;5.93;;;20.80;99.90;;;;;;5067163;22;20253;-65
2021/06/16 04:49:19;;;;;;;7.50;7.00;;;21.10;99.90;;;;;;5031901;28;20187;-65
2021/06/16 04:51:44;;;;;;;8.15;7.43;;;21.30;99.90;;;;;;5032297;28;20175;-65
2021/06/16 04:54:10;;;;;;;7.05;6.55;;;21.50;99.90;;;;;;5015863;28;20196;-65
2021/06/16 04:56:40;;;;;;;6.47;5.93;;;21.60;99.90;;;;;;5012605;28;20192;-65
2021/06/16 04:59:06;;;;;;;7.65;6.95;;;21.70;99.90;;;;;;5028057;28;20265;-65
2021/06/16 05:01:34;;;;;;;8.82;6.22;;;21.60;99.90;;;;;;5032123;28;20206;-65
2021/06/16 05:04:00;;;;;;;7.03;6.45;;;21.60;99.90;;;;;;5017747;28;20187;-65
2021/06/16 05:06:25;;;;;;;7.93;7.38;;;21.50;99.90;;;;;;5028609;28;20211;-66
2021/06/16 05:08:51;;;;;;;7.40;6.80;;;21.30;99.90;;;;;;5012542;28;20259;-67
2021/06/16 05:11:17;;;;;;;7.28;6.78;;;21.10;99.90;;;;;;5012227;28;20172;-66
2021/06/16 05:13:42;;;;;;;7.88;7.28;;;21.00;99.90;;;;;;5030798;28;20735;-65
2021/06/16 05:16:08;;;;;;;7.10;6.40;;;21.00;99.90;;;;;;5032341;28;20543;-66
2021/06/16 05:18:34;;;;;;;7.18;6.68;;;21.00;99.90;;;;;;5015182;28;20207;-66
2021/06/16 05:21:00;;;;;;;7.80;7.30;;;21.10;99.90;;;;;;5012231;28;20184;-66
2021/06/16 05:23:28;;;;;;;7.05;6.57;;;21.20;99.90;;;;;;5027082;28;20229;-66
2021/06/16 05:25:53;;;;;;;6.75;6.10;;;21.30;99.90;;;;;;5031933;28;20621;-66
2021/06/16 05:28:20;;;;;;;6.95;6.55;;;21.70;99.90;;;;;;5018357;28;20204;-67
2021/06/16 05:30:45;;;;;;;7.07;6.57;;;22.00;99.90;;;;;;5011807;28;20175;-66
2021/06/16 05:33:11;;;;;;;9.43;6.88;;;22.30;99.90;;;;;;5003015;28;20172;-66
2021/06/16 05:35:37;;;;;;;6.55;6.15;;;22.40;99.90;;;;;;5012024;28;20190;-66
2021/06/16 05:38:03;;;;;;;7.20;5.68;;;22.70;99.90;;;;;;5021552;28;20203;-66
2021/06/16 05:40:29;;;;;;;6.72;6.10;;;22.80;99.90;;;;;;5027247;28;20186;-66
2021/06/16 05:42:54;;;;;;;6.63;6.13;;;23.00;99.90;;;;;;5011970;28;20192;-66
2021/06/16 05:45:20;;;;;;;7.55;6.78;;;22.90;99.90;;;;;;5014115;28;20233;-66
2021/06/16 05:47:46;;;;;;;7.03;6.32;;;22.70;99.90;;;;;;5031377;28;20221;-66
2021/06/16 05:50:12;;;;;;;7.55;7.03;;;22.60;99.90;;;;;;5029738;28;20184;-66
2021/06/16 05:52:38;;;;;;;7.65;7.05;;;22.80;99.90;;;;;;5031606;28;20179;-66
2021/06/16 05:55:05;;;;;;;7.90;7.30;;;22.90;99.90;;;;;;5030355;28;20167;-66
2021/06/16 05:57:30;;;;;;;10.00;7.78;;;23.00;99.90;;;;;;5011606;28;20188;-66
2021/06/16 05:59:56;;;;;;;7.53;6.90;;;22.90;99.90;;;;;;5011637;28;20164;-67
2021/06/16 06:02:22;;;;;;;7.32;6.65;;;22.60;99.90;;;;;;5013058;28;20660;-65
2021/06/16 06:04:47;;;;;;;8.18;7.53;;;22.50;99.90;;;;;;5012077;28;20196;-66
2021/06/16 06:07:13;;;;;;;7.45;6.75;;;22.50;99.90;;;;;;5028707;28;20203;-66
2021/06/16 06:09:39;;;;;;;9.55;7.53;;;22.60;99.90;;;;;;5031079;28;20512;-65
2021/06/16 06:12:05;;;;;;;8.35;7.47;;;22.80;99.90;;;;;;5029429;28;20592;-66
2021/06/16 06:14:30;;;;;;;7.75;7.15;;;22.80;99.90;;;;;;5031319;28;20167;-66
2021/06/16 06:16:56;;;;;;;8.07;7.53;;;23.00;99.90;;;;;;5018951;28;20291;-65
2021/06/16 06:19:21;;;;;;;7.05;6.45;;;23.30;99.90;;;;;;5015658;28;20187;-65
2021/06/16 06:21:47;;;;;;;8.05;7.25;;;23.60;99.90;;;;;;5026749;28;20333;-65
2021/06/16 06:24:13;;;;;;;8.32;7.63;;;24.10;99.90;;;;;;5035360;28;20739;-66
2021/06/16 06:26:38;;;;;;;8.73;8.13;;;24.40;99.90;;;;;;5024861;28;20207;-63
2021/06/16 06:29:04;;;;;;;7.18;6.57;;;24.50;99.90;;;;;;5015401;28;20598;-65
2021/06/16 06:31:31;;;;;;;7.25;6.55;;;24.70;99.90;;;;;;5016023;28;20176;-63
2021/06/16 06:33:56;;;;;;;8.07;7.38;;;24.80;99.90;;;;;;5015423;28;20179;-64
2021/06/16 06:36:23;;;;;;;6.88;6.38;;;24.90;99.90;;;;;;5021413;28;20199;-63
2021/06/16 06:38:49;;;;;;;7.20;6.70;;;25.20;99.90;;;;;;5034959;28;20304;-63
2021/06/16 06:41:15;;;;;;;6.90;6.40;;;25.40;99.90;;;;;;5033209;28;20186;-63
2021/06/16 06:43:41;;;;;;;7.03;6.47;;;25.50;99.90;;;;;;5035068;28;20175;-63
2021/06/16 06:46:07;;;;;;;7.28;6.70;;;25.60;99.90;;;;;;5031580;28;20214;-63
2021/06/16 06:48:33;;;;;;;7.07;6.60;;;25.80;99.90;;;;;;5015211;28;20227;-63
2021/06/16 06:50:59;;;;;;;6.47;6.07;;;26.10;99.90;;;;;;5015596;28;20665;-63
2021/06/16 06:53:27;;;;;;;7.63;6.15;;;26.10;99.90;;;;;;5015050;28;20708;-63
2021/06/16 06:55:53;;;;;;;6.63;6.13;;;26.30;99.90;;;;;;5015152;28;20246;-63
2021/06/16 06:58:19;;;;;;;6.60;6.10;;;26.30;99.90;;;;;;5032870;28;20204;-64
2021/06/16 07:00:44;;;;;;;7.50;6.80;;;26.40;99.90;;;;;;5033571;28;20538;-66
2021/06/16 07:03:10;;;;;;;7.40;6.80;;;26.70;99.90;;;;;;5035195;28;20184;-66
2021/06/16 07:05:36;;;;;;;6.28;5.75;;;26.80;99.90;;;;;;5033939;28;20214;-65
2021/06/16 07:08:02;;;;;;;5.70;5.30;;;27.00;99.90;;;;;;5034715;28;20191;-64
2021/06/16 07:10:28;;;;;;;5.63;5.22;;;26.70;99.90;;;;;;5019946;28;20488;-65
2021/06/16 07:12:54;;;;;;;8.07;7.38;;;26.90;99.90;;;;;;5014839;28;20701;-65
2021/06/16 07:15:20;;;;;;;6.55;6.15;;;27.10;99.90;;;;;;5027523;28;20262;-65
2021/06/16 07:17:45;;;;;;;6.88;6.40;;;27.20;99.90;;;;;;5034171;28;20199;-66
2021/06/16 07:20:12;;;;;;;6.07;5.57;;;27.40;99.90;;;;;;5022912;28;20680;-65
2021/06/16 07:22:37;;;;;;;6.88;6.38;;;27.50;99.90;;;;;;5015099;28;20585;-65
2021/06/16 07:25:04;;;;;;;7.03;6.43;;;27.70;99.90;;;;;;5024431;28;20207;-66
2021/06/16 07:27:30;;;;;;;7.40;5.45;;;27.80;99.90;;;;;;5016825;28;20214;-66
2021/06/16 07:29:56;;;;;;;5.45;5.05;;;28.10;99.90;;;;;;5026774;28;20701;-66
2021/06/16 07:32:22;;;;;;;5.00;4.70;;;28.50;99.90;;;;;;5015394;28;20180;-66
2021/06/16 07:34:48;;;;;;;7.38;5.63;;;28.70;99.90;;;;;;5020416;28;20176;-66
2021/06/16 07:37:20;;;;;;;6.75;6.15;;;28.50;99.90;;;;;;5017485;28;20238;-67
2021/06/16 07:39:46;;;;;;;6.70;6.20;;;28.50;99.90;;;;;;5029295;28;20264;-66
2021/06/16 07:42:13;;;;;;;5.65;5.22;;;28.80;99.90;;;;;;5015117;28;20212;-66
2021/06/16 07:44:39;;;;;;;6.43;5.72;;;29.10;99.90;;;;;;5017076;28;20183;-66
2021/06/16 07:47:05;;;;;;;6.53;6.00;;;29.30;99.90;;;;;;5033897;28;20207;-66
2021/06/16 07:49:30;;;;;;;5.85;5.38;;;29.60;99.90;;;;;;5031913;28;20221;-66
2021/06/16 07:51:56;;;;;;;6.30;5.78;;;29.70;99.90;;;;;;5013613;28;20168;-66
2021/06/16 07:54:22;;;;;;;5.57;5.07;;;29.90;99.90;;;;;;5013990;28;20176;-67
2021/06/16 07:56:48;;;;;;;5.53;5.13;;;30.20;99.90;;;;;;5033037;28;20209;-66
2021/06/16 07:59:13;;;;;;;5.78;5.38;;;30.30;99.90;;;;;;5033576;28;20645;-65
2021/06/16 08:01:40;;;;;;;5.97;5.53;;;30.30;99.90;;;;;;5015175;28;20184;-66
2021/06/16 08:04:06;;;;;;;5.95;5.40;;;30.30;99.90;;;;;;5013904;28;20172;-66
2021/06/16 08:06:31;;;;;;;5.70;5.20;;;30.40;99.90;;;;;;5029461;28;20214;-67
2021/06/16 08:08:57;;;;;;;6.05;5.55;;;30.40;99.90;;;;;;5033316;28;20183;-67
2021/06/16 08:11:23;;;;;;;6.25;5.75;;;30.90;99.90;;;;;;5018664;28;20217;-67
2021/06/16 08:13:49;;;;;;;8.43;7.55;;;31.00;99.90;;;;;;5013321;28;20196;-67
2021/06/16 08:16:17;;;;;;;7.60;7.07;;;31.00;99.90;;;;;;5025974;28;20180;-66
2021/06/16 08:18:47;;;;;;;8.80;8.10;;;31.00;99.90;;;;;;5033173;28;20203;-66
2021/06/16 08:21:13;;;;;;;6.70;6.30;;;30.90;99.90;;;;;;5032693;28;20187;-67
2021/06/16 08:23:40;;;;;;;7.22;6.60;;;31.10;99.90;;;;;;5032981;28;20222;-67
2021/06/16 08:26:06;;;;;;;7.03;6.53;;;31.40;99.90;;;;;;5022335;28;20215;-66
2021/06/16 08:28:31;;;;;;;7.72;7.22;;;31.10;99.90;;;;;;5013654;28;20175;-66
2021/06/16 08:30:57;;;;;;;6.80;6.35;;;31.00;99.90;;;;;;5016543;28;20191;-67
2021/06/16 08:33:22;;;;;;;6.60;6.10;;;31.10;99.90;;;;;;5013204;28;20184;-66
2021/06/16 08:35:48;;;;;;;7.95;7.25;;;31.10;99.90;;;;;;5027556;28;20266;-66
2021/06/16 08:38:14;;;;;;;7.72;7.03;;;31.00;99.90;;;;;;5028595;28;20275;-67
2021/06/16 08:40:39;;;;;;;7.72;7.05;;;31.00;99.90;;;;;;5011931;28;20165;-67
2021/06/16 08:43:05;;;;;;;6.10;5.68;;;31.20;99.90;;;;;;5015227;28;20583;-67
2021/06/16 08:45:38;;;;;;;6.45;6.05;;;31.40;99.90;;;;;;5032648;28;20285;-67
2021/06/16 08:48:04;;;;;;;5.65;5.13;;;31.60;99.90;;;;;;5030697;28;20273;-67
2021/06/16 08:50:30;;;;;;;6.90;6.30;;;32.00;99.90;;;;;;5012565;28;20172;-67
2021/06/16 08:52:56;;;;;;;6.50;5.95;;;32.30;99.90;;;;;;5012553;28;20176;-67
2021/06/16 08:55:22;;;;;;;5.72;5.22;;;32.70;99.90;;;;;;5032511;28;20270;-67
2021/06/16 08:57:48;;;;;;;6.15;5.60;;;32.80;99.90;;;;;;5032211;28;20246;-67
2021/06/16 09:00:16;;;;;;;7.05;6.10;;;32.60;99.90;;;;;;5013695;28;20176;-67
2021/06/16 09:02:42;;;;;;;5.28;4.88;;;32.30;99.90;;;;;;5016129;28;20182;-67
2021/06/16 09:05:09;;;;;;;6.88;6.20;;;32.40;99.90;;;;;;5032571;28;20203;-66
2021/06/16 09:07:37;;;;;;;6.72;6.00;;;32.70;99.90;;;;;;5029800;28;20241;-66
2021/06/16 09:10:19;;;;;;;6.00;5.57;;;33.00;99.90;;;;;;5012367;28;20210;-66
2021/06/16 09:12:49;;;;;;;5.38;4.93;;;33.30;99.90;;;;;;5013524;28;20262;-66
2021/06/16 09:15:17;;;;;;;6.43;5.82;;;33.60;99.90;;;;;;5012701;28;20191;-66
2021/06/16 09:18:04;;;;;;;5.57;5.18;;;33.80;99.90;;;;;;5014218;28;20199;-66
2021/06/16 09:20:43;;;;;;;9.90;6.03;;;33.80;99.90;;;;;;5031939;28;20210;-67
2021/06/16 09:23:18;;;;;;;6.93;6.22;;;33.80;99.90;;;;;;5030611;28;20246;-67
2021/06/16 09:26:05;;;;;;;6.90;6.47;;;34.00;99.90;;;;;;5031818;28;20706;-67
2021/06/16 09:28:37;;;;;;;6.85;6.38;;;34.00;99.90;;;;;;5024091;28;20204;-67
2021/06/16 09:31:02;;;;;;;6.63;6.13;;;34.20;99.90;;;;;;5010814;28;20164;-67
2021/06/16 09:33:28;;;;;;;7.00;6.40;;;34.00;99.90;;;;;;5018223;28;20186;-66
2021/06/16 09:35:54;;;;;;;6.68;6.07;;;34.10;99.90;;;;;;5031683;28;20653;-67
2021/06/16 09:38:33;;;;;;;7.03;6.43;;;34.20;99.90;;;;;;5026459;28;20215;-66
2021/06/16 09:41:00;;;;;;;7.75;7.05;;;34.00;99.90;;;;;;5011911;28;20180;-66
2021/06/16 09:43:28;;;;;;;7.15;6.60;;;34.20;99.90;;;;;;5013158;28;20203;-66
2021/06/16 09:46:01;;;;;;;6.35;5.95;;;34.20;99.90;;;;;;5011626;28;20293;-67
2021/06/16 09:48:35;;;;;;;6.72;6.22;;;34.30;99.90;;;;;;5016635;28;20194;-67
2021/06/16 09:51:11;;;;;;;6.35;5.85;;;34.40;99.90;;;;;;5031544;28;20178;-67
2021/06/16 09:54:14;;;;;;;6.13;5.63;;;34.50;99.90;;;;;;5025230;28;20250;-67
2021/06/16 09:56:42;;;;;;;7.40;6.80;;;34.70;99.90;;;;;;5011681;28;20649;-67
2021/06/16 09:59:08;;;;;;;6.65;5.97;;;34.90;99.90;;;;;;5021205;28;20171;-66
2021/06/16 10:01:45;;;;;;;6.10;5.60;;;35.00;99.90;;;;;;5013510;28;20253;-66
2021/06/16 10:04:29;;;;;;;6.10;5.57;;;35.30;99.90;;;;;;5021982;28;20176;-66
2021/06/16 10:07:10;;;;;;;5.85;5.45;;;35.60;99.90;;;;;;5011430;28;20218;-66
2021/06/16 10:09:37;;;;;;;6.15;5.55;;;36.00;99.90;;;;;;5023391;28;20183;-66
2021/06/16 10:12:03;;;;;;;7.30;6.70;;;35.90;99.90;;;;;;5031018;28;20183;-66
2021/06/16 10:14:31;;;;;;;6.28;5.72;;;36.20;99.90;;;;;;5029476;28;20175;-66
2021/06/16 10:16:57;;;;;;;5.88;5.40;;;36.50;99.90;;;;;;5031252;28;20683;-66
2021/06/16 10:19:24;;;;;;;6.10;5.68;;;36.60;99.90;;;;;;5021858;28;20267;-65
2021/06/16 10:21:50;;;;;;;5.68;5.18;;;36.30;99.90;;;;;;5011019;28;20210;-66
2021/06/16 10:24:15;;;;;;;6.15;5.55;;;36.10;99.90;;;;;;5019224;28;20223;-66
2021/06/16 10:26:42;;;;;;;5.78;5.30;;;36.00;99.90;;;;;;5030963;28;20256;-66
2021/06/16 10:29:11;;;;;;;6.15;5.65;;;35.80;99.90;;;;;;5024772;28;20176;-66
2021/06/16 10:31:40;;;;;;;5.80;5.30;;;36.00;99.90;;;;;;5010922;28;20173;-66
2021/06/16 10:34:06;;;;;;;5.72;5.22;;;36.10;99.90;;;;;;5016575;28;20262;-66
2021/06/16 10:36:32;;;;;;;5.68;5.28;;;36.10;99.90;;;;;;5031048;28;20191;-65
2021/06/16 10:38:58;;;;;;;6.55;6.05;;;36.50;99.90;;;;;;5026611;28;20180;-66
2021/06/16 10:41:49;;;;;;;6.18;5.68;;;36.70;99.90;;;;;;5010975;28;20188;-66
2021/06/16 10:44:24;;;;;;;6.82;6.22;;;36.20;99.90;;;;;;5016783;28;20184;-66
2021/06/16 10:47:07;;;;;;;6.47;5.97;;;36.10;99.90;;;;;;5031332;28;20206;-66
2021/06/16 10:49:49;;;;;;;6.63;6.05;;;35.80;99.90;;;;;;5023388;28;20514;-66
2021/06/16 10:52:17;;;;;;;5.63;5.22;;;36.00;99.90;;;;;;5011249;28;20168;-66
2021/06/16 10:54:56;;;;;;;6.57;6.05;;;36.30;99.90;;;;;;5019012;28;20301;-66
2021/06/16 10:57:22;;;;;;;5.90;5.47;;;37.00;99.90;;;;;;5031032;28;20188;-66
2021/06/16 10:59:50;;;;;;;5.35;4.95;;;37.30;99.90;;;;;;5021849;28;20185;-66
2021/06/16 11:02:25;;;;;;;5.85;5.30;;;37.60;99.90;;;;;;5013444;28;20184;-66
2021/06/16 11:04:51;;;;;;;6.30;5.07;;;37.40;99.90;;;;;;5034755;28;20853;-66
2021/06/16 11:07:43;;;;;;;5.47;5.07;;;37.70;99.90;;;;;;5031010;28;20192;-66
2021/06/16 11:10:09;;;;;;;4.97;4.60;;;38.00;99.90;;;;;;5012725;28;20267;-67
2021/06/16 11:12:38;;;;;;;6.40;5.88;;;38.00;99.90;;;;;;5018769;28;20262;-66
2021/06/16 11:15:09;;;;;;;6.40;5.90;;;38.20;99.90;;;;;;5034719;28;20206;-66
2021/06/16 11:17:35;;;;;;;5.60;5.07;;;38.60;99.90;;;;;;5030679;28;20740;-66
2021/06/16 11:20:08;;;;;;;5.18;4.78;;;39.00;99.90;;;;;;5014667;28;20267;-67
2021/06/16 11:22:45;;;;;;;5.50;5.07;;;39.00;99.90;;;;;;5017469;28;20290;-67
2021/06/16 11:25:26;;;;;;;4.90;4.50;;;39.40;99.90;;;;;;5034829;28;20253;-66
2021/06/16 11:27:57;;;;;;;4.60;4.30;;;39.70;99.90;;;;;;5032705;28;20309;-66
2021/06/16 11:30:29;;;;;;;5.00;4.30;;;40.10;99.90;;;;;;5024658;28;20187;-67
2021/06/16 11:33:19;;;;;;;4.45;4.15;;;40.30;99.90;;;;;;5025324;28;20767;-66
2021/06/16 11:38:19;;;;;;;5.28;4.80;;;40.00;99.90;;;;;;5030809;28;20221;-66
2021/06/16 11:41:03;;;;;;;4.43;4.13;;;39.80;99.00;;;;;;5033204;28;20168;-66
2021/06/16 11:43:36;;;;;;;4.90;4.50;;;39.50;98.50;;;;;;5027110;28;20180;-66
2021/06/16 11:46:05;;;;;;;4.22;3.92;;;39.40;99.60;;;;;;5013913;28;20381;-66
2021/06/16 11:48:30;;;;;;;4.78;4.38;;;39.70;99.90;;;;;;5020669;28;20183;-66
2021/06/16 11:50:56;;;;;;;5.30;4.90;;;39.70;99.90;;;;;;5029763;28;20179;-64
2021/06/16 11:53:30;;;;;;;4.90;4.47;;;39.50;98.70;;;;;;5022232;28;20187;-66
2021/06/16 11:56:00;;;;;;;5.35;4.85;;;39.40;98.50;;;;;;5031160;28;20175;-66
2021/06/16 11:58:39;;;;;;;4.22;3.92;;;39.20;99.90;;;;;;5023269;28;20210;-66
2021/06/16 12:01:17;;;;;;;4.75;4.38;;;39.30;99.90;;;;;;5025506;28;20179;-66
2021/06/16 12:03:59;;;;;;;4.47;4.07;;;39.50;99.90;;;;;;5033560;28;20183;-66
2021/06/16 12:06:25;;;;;;;4.35;4.05;;;39.20;98.60;;;;;;5016459;28;20215;-66
2021/06/16 12:09:03;;;;;;;4.35;4.05;;;39.40;99.90;;;;;;5013852;28;20168;-66
2021/06/16 12:11:32;;;;;;;4.85;4.45;;;39.80;98.50;;;;;;5013677;28;20203;-66
2021/06/16 12:14:08;;;;;;;4.63;4.22;;;39.60;97.30;;;;;;5016470;28;20184;-66
2021/06/16 12:16:36;;;;;;;4.53;4.22;;;40.20;97.50;;;;;;5025501;28;20340;-66
2021/06/16 12:19:20;;;;;;;4.95;4.55;;;39.90;97.30;;;;;;5016051;28;20183;-66
2021/06/16 12:22:11;;;;;;;4.55;4.15;;;39.60;97.50;;;;;;5025407;28;20534;-66
2021/06/16 12:24:40;;;;;;;5.07;4.68;;;39.40;99.10;;;;;;5023593;28;20199;-66
2021/06/16 12:27:13;;;;;;;4.80;4.40;;;39.20;97.40;;;;;;5031412;28;20195;-66
2021/06/16 12:29:46;;;;;;;5.10;4.60;;;38.90;96.80;;;;;;5017328;28;20187;-66
2021/06/16 12:32:36;;;;;;;4.63;4.15;;;38.90;96.80;;;;;;5030042;28;20191;-66
2021/06/16 12:35:25;;;;;;;4.50;4.10;;;39.20;98.10;;;;;;5029407;28;20190;-66
2021/06/16 12:37:53;;;;;;;4.68;4.28;;;39.90;97.00;;;;;;5021601;28;20203;-66
2021/06/16 12:40:34;;;;;;;4.70;4.30;;;39.70;95.70;;;;;;5014857;28;20187;-66
2021/06/16 12:43:00;;;;;;;4.53;4.13;;;39.30;96.00;;;;;;5022454;28;20186;-66
2021/06/16 12:45:29;;;;;;;5.40;4.50;;;39.10;96.50;;;;;;5013401;28;20200;-66
2021/06/16 12:47:56;;;;;;;4.10;3.80;;;38.60;95.40;;;;;;5022809;28;20273;-66
2021/06/16 12:50:35;;;;;;;4.47;4.10;;;38.40;97.80;;;;;;5017975;28;20225;-66
2021/06/16 12:53:18;;;;;;;4.65;4.32;;;38.60;96.60;;;;;;5018249;28;20184;-66
2021/06/16 12:56:01;;;;;;;4.40;4.10;;;39.20;97.60;;;;;;5023087;28;20655;-67
2021/06/16 12:58:26;;;;;;;4.20;3.90;;;39.80;97.70;;;;;;5029812;28;20626;-66